sensor_id;sensor_type;location;lat;lon;timestamp;P1;durP1;ratioP1;P2;durP2;ratioP2
75062;SDS011;63981;51.052;13.754;2023-09-19T00:01:19;4.22;;;2.80;;
75062;SDS011;63981;51.052;13.754;2023-09-19T00:03:46;4.93;;;2.28;;
75062;SDS011;63981;51.052;13.754;2023-09-19T00:06:12;4.93;;;3.00;;
75062;SDS011;63981;51.052;13.754;2023-09-19T00:08:41;5.15;;;2.63;;
75062;SDS011;63981;51.052;13.754;2023-09-19T00:11:10;3.60;;;2.08;;
75062;SDS011;63981;51.052;13.754;2023-09-19T00:13:36;3.03;;;1.90;;
75062;SDS011;63981;51.052;13.754;2023-09-19T00:16:09;4.10;;;2.38;;
75062;SDS011;63981;51.052;13.754;2023-09-19T00:18:37;6.43;;;2.70;;
75062;SDS011;63981;51.052;13.754;2023-09-19T00:21:03;5.00;;;2.20;;
75062;SDS011;63981;51.052;13.754;2023-09-19T00:23:33;7.82;;;2.53;;
75062;SDS011;63981;51.052;13.754;2023-09-19T00:25:59;4.25;;;2.78;;
75062;SDS011;63981;51.052;13.754;2023-09-19T00:28:26;3.75;;;2.33;;
75062;SDS011;63981;51.052;13.754;2023-09-19T00:30:53;3.90;;;2.38;;
75062;SDS011;63981;51.052;13.754;2023-09-19T00:33:22;4.65;;;2.22;;
75062;SDS011;63981;51.052;13.754;2023-09-19T00:35:50;4.28;;;2.47;;
75062;SDS011;63981;51.052;13.754;2023-09-19T00:38:20;5.93;;;2.80;;
75062;SDS011;63981;51.052;13.754;2023-09-19T00:40:52;4.35;;;2.80;;
75062;SDS011;63981;51.052;13.754;2023-09-19T00:43:19;4.63;;;2.72;;
75062;SDS011;63981;51.052;13.754;2023-09-19T00:45:47;4.75;;;2.58;;
75062;SDS011;63981;51.052;13.754;2023-09-19T00:48:15;4.30;;;2.97;;
75062;SDS011;63981;51.052;13.754;2023-09-19T00:50:42;8.23;;;3.78;;
75062;SDS011;63981;51.052;13.754;2023-09-19T00:53:09;5.63;;;3.20;;
75062;SDS011;63981;51.052;13.754;2023-09-19T00:55:41;6.80;;;3.15;;
75062;SDS011;63981;51.052;13.754;2023-09-19T00:58:08;4.85;;;3.10;;
75062;SDS011;63981;51.052;13.754;2023-09-19T01:00:36;6.32;;;3.60;;
75062;SDS011;63981;51.052;13.754;2023-09-19T01:03:02;6.55;;;3.50;;
75062;SDS011;63981;51.052;13.754;2023-09-19T01:05:29;8.45;;;3.85;;
75062;SDS011;63981;51.052;13.754;2023-09-19T01:07:55;6.03;;;3.42;;
75062;SDS011;63981;51.052;13.754;2023-09-19T01:10:21;7.38;;;3.58;;
75062;SDS011;63981;51.052;13.754;2023-09-19T01:15:49;6.60;;;4.00;;
75062;SDS011;63981;51.052;13.754;2023-09-19T01:21:15;5.90;;;3.75;;
75062;SDS011;63981;51.052;13.754;2023-09-19T01:24:07;8.95;;;4.28;;
75062;SDS011;63981;51.052;13.754;2023-09-19T01:26:56;8.63;;;3.38;;
75062;SDS011;63981;51.052;13.754;2023-09-19T01:29:34;5.97;;;3.53;;
75062;SDS011;63981;51.052;13.754;2023-09-19T01:32:10;6.18;;;3.63;;
75062;SDS011;63981;51.052;13.754;2023-09-19T01:34:43;6.10;;;3.47;;
75062;SDS011;63981;51.052;13.754;2023-09-19T01:37:23;7.70;;;3.95;;
75062;SDS011;63981;51.052;13.754;2023-09-19T01:39:56;6.32;;;3.67;;
75062;SDS011;63981;51.052;13.754;2023-09-19T01:45:33;5.78;;;3.70;;
75062;SDS011;63981;51.052;13.754;2023-09-19T01:48:05;5.60;;;3.83;;
75062;SDS011;63981;51.052;13.754;2023-09-19T01:55:49;4.95;;;3.92;;
75062;SDS011;63981;51.052;13.754;2023-09-19T01:58:31;7.63;;;3.83;;
75062;SDS011;63981;51.052;13.754;2023-09-19T02:01:01;6.60;;;3.67;;
75062;SDS011;63981;51.052;13.754;2023-09-19T02:03:30;5.78;;;3.28;;
75062;SDS011;63981;51.052;13.754;2023-09-19T02:05:57;7.30;;;3.78;;
75062;SDS011;63981;51.052;13.754;2023-09-19T02:08:23;6.45;;;3.80;;
75062;SDS011;63981;51.052;13.754;2023-09-19T02:10:49;5.78;;;4.00;;
75062;SDS011;63981;51.052;13.754;2023-09-19T02:13:19;7.80;;;4.05;;
75062;SDS011;63981;51.052;13.754;2023-09-19T02:15:46;6.88;;;3.28;;
75062;SDS011;63981;51.052;13.754;2023-09-19T02:18:13;5.05;;;3.30;;
75062;SDS011;63981;51.052;13.754;2023-09-19T02:20:40;7.90;;;4.00;;
75062;SDS011;63981;51.052;13.754;2023-09-19T02:23:06;5.10;;;3.60;;
75062;SDS011;63981;51.052;13.754;2023-09-19T02:25:34;5.60;;;3.55;;
75062;SDS011;63981;51.052;13.754;2023-09-19T02:28:01;4.88;;;3.20;;
75062;SDS011;63981;51.052;13.754;2023-09-19T02:30:28;8.15;;;3.45;;
75062;SDS011;63981;51.052;13.754;2023-09-19T02:32:55;5.72;;;3.45;;
75062;SDS011;63981;51.052;13.754;2023-09-19T02:35:22;6.65;;;3.05;;
75062;SDS011;63981;51.052;13.754;2023-09-19T02:37:48;4.40;;;3.20;;
75062;SDS011;63981;51.052;13.754;2023-09-19T02:40:15;6.47;;;3.67;;
75062;SDS011;63981;51.052;13.754;2023-09-19T02:42:48;7.05;;;3.58;;
75062;SDS011;63981;51.052;13.754;2023-09-19T02:45:18;4.85;;;3.30;;
75062;SDS011;63981;51.052;13.754;2023-09-19T02:47:45;7.05;;;3.28;;
75062;SDS011;63981;51.052;13.754;2023-09-19T02:52:42;5.07;;;3.30;;
75062;SDS011;63981;51.052;13.754;2023-09-19T02:55:09;6.22;;;3.80;;
75062;SDS011;63981;51.052;13.754;2023-09-19T02:57:38;4.05;;;3.17;;
75062;SDS011;63981;51.052;13.754;2023-09-19T03:00:07;3.75;;;2.55;;
75062;SDS011;63981;51.052;13.754;2023-09-19T03:02:36;5.20;;;3.28;;
75062;SDS011;63981;51.052;13.754;2023-09-19T03:05:04;4.53;;;2.90;;
75062;SDS011;63981;51.052;13.754;2023-09-19T03:07:33;2.10;;;1.55;;
75062;SDS011;63981;51.052;13.754;2023-09-19T03:10:00;4.80;;;2.47;;
75062;SDS011;63981;51.052;13.754;2023-09-19T03:12:26;3.35;;;2.00;;
75062;SDS011;63981;51.052;13.754;2023-09-19T03:14:52;1.83;;;1.15;;
75062;SDS011;63981;51.052;13.754;2023-09-19T03:17:19;4.47;;;1.80;;
75062;SDS011;63981;51.052;13.754;2023-09-19T03:19:46;2.35;;;1.42;;
75062;SDS011;63981;51.052;13.754;2023-09-19T03:22:14;2.63;;;1.55;;
75062;SDS011;63981;51.052;13.754;2023-09-19T03:24:40;2.67;;;1.65;;
75062;SDS011;63981;51.052;13.754;2023-09-19T03:27:09;2.80;;;1.40;;
75062;SDS011;63981;51.052;13.754;2023-09-19T03:29:36;2.00;;;1.35;;
75062;SDS011;63981;51.052;13.754;2023-09-19T03:32:03;4.15;;;1.77;;
75062;SDS011;63981;51.052;13.754;2023-09-19T03:34:30;3.20;;;2.15;;
75062;SDS011;63981;51.052;13.754;2023-09-19T03:36:57;2.92;;;1.50;;
75062;SDS011;63981;51.052;13.754;2023-09-19T03:39:23;2.97;;;1.48;;
75062;SDS011;63981;51.052;13.754;2023-09-19T03:41:50;2.67;;;1.20;;
75062;SDS011;63981;51.052;13.754;2023-09-19T03:44:16;3.25;;;1.42;;
75062;SDS011;63981;51.052;13.754;2023-09-19T03:46:42;2.35;;;1.45;;
75062;SDS011;63981;51.052;13.754;2023-09-19T03:49:08;2.20;;;1.10;;
75062;SDS011;63981;51.052;13.754;2023-09-19T03:51:35;3.95;;;1.27;;
75062;SDS011;63981;51.052;13.754;2023-09-19T03:54:01;3.60;;;1.40;;
75062;SDS011;63981;51.052;13.754;2023-09-19T03:56:28;1.75;;;1.10;;
75062;SDS011;63981;51.052;13.754;2023-09-19T03:58:54;1.40;;;0.90;;
75062;SDS011;63981;51.052;13.754;2023-09-19T04:01:20;1.77;;;1.00;;
75062;SDS011;63981;51.052;13.754;2023-09-19T04:03:47;1.35;;;0.90;;
75062;SDS011;63981;51.052;13.754;2023-09-19T04:06:14;3.10;;;1.15;;
75062;SDS011;63981;51.052;13.754;2023-09-19T04:08:41;2.00;;;0.80;;
75062;SDS011;63981;51.052;13.754;2023-09-19T04:11:07;1.00;;;0.70;;
75062;SDS011;63981;51.052;13.754;2023-09-19T04:13:33;4.10;;;2.17;;
75062;SDS011;63981;51.052;13.754;2023-09-19T04:16:00;4.28;;;0.90;;
75062;SDS011;63981;51.052;13.754;2023-09-19T04:18:26;1.77;;;0.80;;
75062;SDS011;63981;51.052;13.754;2023-09-19T04:20:53;5.22;;;1.02;;
75062;SDS011;63981;51.052;13.754;2023-09-19T04:23:19;1.65;;;1.00;;
75062;SDS011;63981;51.052;13.754;2023-09-19T04:25:46;2.40;;;0.90;;
75062;SDS011;63981;51.052;13.754;2023-09-19T04:28:12;3.75;;;0.82;;
75062;SDS011;63981;51.052;13.754;2023-09-19T04:30:38;1.30;;;0.68;;
75062;SDS011;63981;51.052;13.754;2023-09-19T04:33:07;1.98;;;0.60;;
75062;SDS011;63981;51.052;13.754;2023-09-19T04:35:34;1.90;;;0.60;;
75062;SDS011;63981;51.052;13.754;2023-09-19T04:38:00;2.25;;;0.80;;
75062;SDS011;63981;51.052;13.754;2023-09-19T04:40:26;1.33;;;0.65;;
75062;SDS011;63981;51.052;13.754;2023-09-19T04:42:53;0.80;;;0.60;;
75062;SDS011;63981;51.052;13.754;2023-09-19T04:45:26;3.10;;;0.80;;
75062;SDS011;63981;51.052;13.754;2023-09-19T04:47:53;2.67;;;0.90;;
75062;SDS011;63981;51.052;13.754;2023-09-19T04:50:20;1.58;;;0.75;;
75062;SDS011;63981;51.052;13.754;2023-09-19T04:52:50;1.85;;;0.73;;
75062;SDS011;63981;51.052;13.754;2023-09-19T04:55:20;1.27;;;0.80;;
75062;SDS011;63981;51.052;13.754;2023-09-19T04:57:48;1.92;;;0.98;;
75062;SDS011;63981;51.052;13.754;2023-09-19T05:00:19;2.25;;;0.85;;
75062;SDS011;63981;51.052;13.754;2023-09-19T05:02:49;3.15;;;0.80;;
75062;SDS011;63981;51.052;13.754;2023-09-19T05:05:19;1.65;;;0.88;;
75062;SDS011;63981;51.052;13.754;2023-09-19T05:07:45;1.92;;;0.80;;
75062;SDS011;63981;51.052;13.754;2023-09-19T05:10:12;3.28;;;0.70;;
75062;SDS011;63981;51.052;13.754;2023-09-19T05:12:39;0.60;;;0.52;;
75062;SDS011;63981;51.052;13.754;2023-09-19T05:15:05;0.88;;;0.77;;
75062;SDS011;63981;51.052;13.754;2023-09-19T05:17:35;2.40;;;1.00;;
75062;SDS011;63981;51.052;13.754;2023-09-19T05:20:02;1.58;;;0.90;;
75062;SDS011;63981;51.052;13.754;2023-09-19T05:22:42;1.00;;;0.70;;
75062;SDS011;63981;51.052;13.754;2023-09-19T05:25:10;1.00;;;0.50;;
75062;SDS011;63981;51.052;13.754;2023-09-19T05:27:36;2.95;;;0.80;;
75062;SDS011;63981;51.052;13.754;2023-09-19T05:30:03;2.08;;;0.98;;
75062;SDS011;63981;51.052;13.754;2023-09-19T05:32:30;1.98;;;0.75;;
75062;SDS011;63981;51.052;13.754;2023-09-19T05:34:56;5.50;;;2.10;;
75062;SDS011;63981;51.052;13.754;2023-09-19T05:37:23;2.28;;;0.63;;
75062;SDS011;63981;51.052;13.754;2023-09-19T05:39:52;2.88;;;0.68;;
75062;SDS011;63981;51.052;13.754;2023-09-19T05:42:19;3.83;;;0.80;;
75062;SDS011;63981;51.052;13.754;2023-09-19T05:44:45;1.55;;;0.60;;
75062;SDS011;63981;51.052;13.754;2023-09-19T05:47:11;2.30;;;1.00;;
75062;SDS011;63981;51.052;13.754;2023-09-19T05:49:38;1.13;;;0.52;;
75062;SDS011;63981;51.052;13.754;2023-09-19T05:52:05;2.50;;;0.60;;
75062;SDS011;63981;51.052;13.754;2023-09-19T05:54:32;2.08;;;0.63;;
75062;SDS011;63981;51.052;13.754;2023-09-19T05:57:02;5.18;;;0.90;;
75062;SDS011;63981;51.052;13.754;2023-09-19T05:59:29;2.35;;;0.80;;
75062;SDS011;63981;51.052;13.754;2023-09-19T06:01:55;1.60;;;0.85;;
75062;SDS011;63981;51.052;13.754;2023-09-19T06:04:21;1.45;;;0.90;;
75062;SDS011;63981;51.052;13.754;2023-09-19T06:06:47;5.55;;;2.15;;
75062;SDS011;63981;51.052;13.754;2023-09-19T06:09:14;1.48;;;0.82;;
75062;SDS011;63981;51.052;13.754;2023-09-19T06:11:43;2.17;;;0.80;;
75062;SDS011;63981;51.052;13.754;2023-09-19T06:14:09;1.27;;;0.85;;
75062;SDS011;63981;51.052;13.754;2023-09-19T06:16:36;2.58;;;0.80;;
75062;SDS011;63981;51.052;13.754;2023-09-19T06:19:03;2.88;;;0.95;;
75062;SDS011;63981;51.052;13.754;2023-09-19T06:21:32;3.30;;;0.93;;
75062;SDS011;63981;51.052;13.754;2023-09-19T06:23:58;7.05;;;1.10;;
75062;SDS011;63981;51.052;13.754;2023-09-19T06:26:24;2.83;;;0.80;;
75062;SDS011;63981;51.052;13.754;2023-09-19T06:28:52;2.80;;;0.80;;
75062;SDS011;63981;51.052;13.754;2023-09-19T06:31:18;1.48;;;0.57;;
75062;SDS011;63981;51.052;13.754;2023-09-19T06:33:46;1.60;;;0.90;;
75062;SDS011;63981;51.052;13.754;2023-09-19T06:36:12;2.22;;;0.68;;
75062;SDS011;63981;51.052;13.754;2023-09-19T06:38:38;2.60;;;0.90;;
75062;SDS011;63981;51.052;13.754;2023-09-19T06:41:06;1.05;;;0.65;;
75062;SDS011;63981;51.052;13.754;2023-09-19T06:43:34;2.85;;;0.88;;
75062;SDS011;63981;51.052;13.754;2023-09-19T06:46:00;1.92;;;0.60;;
75062;SDS011;63981;51.052;13.754;2023-09-19T06:48:28;1.45;;;0.90;;
75062;SDS011;63981;51.052;13.754;2023-09-19T06:50:57;2.90;;;1.10;;
75062;SDS011;63981;51.052;13.754;2023-09-19T06:53:24;1.65;;;0.90;;
75062;SDS011;63981;51.052;13.754;2023-09-19T06:55:51;3.90;;;0.80;;
75062;SDS011;63981;51.052;13.754;2023-09-19T06:58:17;2.13;;;1.05;;
75062;SDS011;63981;51.052;13.754;2023-09-19T07:00:43;2.42;;;0.98;;
75062;SDS011;63981;51.052;13.754;2023-09-19T07:03:10;4.88;;;1.00;;
75062;SDS011;63981;51.052;13.754;2023-09-19T07:05:39;2.22;;;0.77;;
75062;SDS011;63981;51.052;13.754;2023-09-19T07:08:06;1.05;;;0.68;;
75062;SDS011;63981;51.052;13.754;2023-09-19T07:10:33;1.67;;;0.73;;
75062;SDS011;63981;51.052;13.754;2023-09-19T07:13:00;3.70;;;0.90;;
75062;SDS011;63981;51.052;13.754;2023-09-19T07:15:28;2.28;;;0.82;;
75062;SDS011;63981;51.052;13.754;2023-09-19T07:17:56;1.25;;;0.70;;
75062;SDS011;63981;51.052;13.754;2023-09-19T07:20:23;1.55;;;0.60;;
75062;SDS011;63981;51.052;13.754;2023-09-19T07:22:55;2.20;;;0.70;;
75062;SDS011;63981;51.052;13.754;2023-09-19T07:25:21;2.63;;;0.55;;
75062;SDS011;63981;51.052;13.754;2023-09-19T07:27:47;0.90;;;0.50;;
75062;SDS011;63981;51.052;13.754;2023-09-19T07:30:13;1.63;;;0.70;;
75062;SDS011;63981;51.052;13.754;2023-09-19T07:32:40;0.95;;;0.50;;
75062;SDS011;63981;51.052;13.754;2023-09-19T07:35:06;0.77;;;0.57;;
75062;SDS011;63981;51.052;13.754;2023-09-19T07:37:33;1.10;;;0.63;;
75062;SDS011;63981;51.052;13.754;2023-09-19T07:39:59;3.90;;;0.50;;
75062;SDS011;63981;51.052;13.754;2023-09-19T07:42:33;0.55;;;0.30;;
75062;SDS011;63981;51.052;13.754;2023-09-19T07:45:01;1.25;;;0.40;;
75062;SDS011;63981;51.052;13.754;2023-09-19T07:47:27;1.55;;;0.60;;
75062;SDS011;63981;51.052;13.754;2023-09-19T07:49:55;2.05;;;0.60;;
75062;SDS011;63981;51.052;13.754;2023-09-19T07:52:21;1.40;;;0.40;;
75062;SDS011;63981;51.052;13.754;2023-09-19T07:54:48;2.10;;;0.40;;
75062;SDS011;63981;51.052;13.754;2023-09-19T07:57:15;1.30;;;0.30;;
75062;SDS011;63981;51.052;13.754;2023-09-19T07:59:41;0.80;;;0.30;;
75062;SDS011;63981;51.052;13.754;2023-09-19T08:02:08;1.52;;;0.50;;
75062;SDS011;63981;51.052;13.754;2023-09-19T08:04:44;1.17;;;0.50;;
75062;SDS011;63981;51.052;13.754;2023-09-19T08:07:14;2.83;;;0.63;;
75062;SDS011;63981;51.052;13.754;2023-09-19T08:09:40;0.57;;;0.20;;
75062;SDS011;63981;51.052;13.754;2023-09-19T08:12:07;1.63;;;0.40;;
75062;SDS011;63981;51.052;13.754;2023-09-19T08:14:36;1.15;;;0.50;;
75062;SDS011;63981;51.052;13.754;2023-09-19T08:17:07;1.42;;;0.32;;
75062;SDS011;63981;51.052;13.754;2023-09-19T08:19:34;1.88;;;0.35;;
75062;SDS011;63981;51.052;13.754;2023-09-19T08:22:00;1.33;;;0.40;;
75062;SDS011;63981;51.052;13.754;2023-09-19T08:24:30;0.80;;;0.30;;
75062;SDS011;63981;51.052;13.754;2023-09-19T08:26:56;1.08;;;0.40;;
75062;SDS011;63981;51.052;13.754;2023-09-19T08:29:24;1.08;;;0.50;;
75062;SDS011;63981;51.052;13.754;2023-09-19T08:31:57;3.42;;;0.60;;
75062;SDS011;63981;51.052;13.754;2023-09-19T08:34:24;1.38;;;0.35;;
75062;SDS011;63981;51.052;13.754;2023-09-19T08:36:54;2.58;;;0.50;;
75062;SDS011;63981;51.052;13.754;2023-09-19T08:39:24;4.07;;;0.50;;
75062;SDS011;63981;51.052;13.754;2023-09-19T08:41:59;1.67;;;0.55;;
75062;SDS011;63981;51.052;13.754;2023-09-19T08:44:27;1.42;;;0.47;;
75062;SDS011;63981;51.052;13.754;2023-09-19T08:46:59;2.90;;;0.63;;
75062;SDS011;63981;51.052;13.754;2023-09-19T08:52:32;0.60;;;0.40;;
75062;SDS011;63981;51.052;13.754;2023-09-19T08:55:07;2.17;;;0.55;;
75062;SDS011;63981;51.052;13.754;2023-09-19T08:57:38;1.10;;;0.50;;
75062;SDS011;63981;51.052;13.754;2023-09-19T09:00:07;1.95;;;0.45;;
75062;SDS011;63981;51.052;13.754;2023-09-19T09:02:37;1.23;;;0.50;;
75062;SDS011;63981;51.052;13.754;2023-09-19T09:05:09;2.50;;;0.40;;
75062;SDS011;63981;51.052;13.754;2023-09-19T09:07:40;0.32;;;0.25;;
75062;SDS011;63981;51.052;13.754;2023-09-19T09:10:06;2.17;;;0.40;;
75062;SDS011;63981;51.052;13.754;2023-09-19T09:12:34;9.98;;;0.63;;
75062;SDS011;63981;51.052;13.754;2023-09-19T09:15:06;1.27;;;0.50;;
75062;SDS011;63981;51.052;13.754;2023-09-19T09:17:34;1.10;;;0.40;;
75062;SDS011;63981;51.052;13.754;2023-09-19T09:20:00;0.80;;;0.50;;
75062;SDS011;63981;51.052;13.754;2023-09-19T09:22:26;1.05;;;0.57;;
75062;SDS011;63981;51.052;13.754;2023-09-19T09:24:53;1.55;;;0.40;;
75062;SDS011;63981;51.052;13.754;2023-09-19T09:27:20;0.65;;;0.45;;
75062;SDS011;63981;51.052;13.754;2023-09-19T09:29:50;2.15;;;0.70;;
75062;SDS011;63981;51.052;13.754;2023-09-19T09:32:21;2.92;;;0.50;;
75062;SDS011;63981;51.052;13.754;2023-09-19T09:34:52;2.30;;;0.60;;
75062;SDS011;63981;51.052;13.754;2023-09-19T09:37:19;1.33;;;0.57;;
75062;SDS011;63981;51.052;13.754;2023-09-19T09:39:50;2.47;;;0.70;;
75062;SDS011;63981;51.052;13.754;2023-09-19T09:42:32;0.93;;;0.55;;
75062;SDS011;63981;51.052;13.754;2023-09-19T09:45:18;0.82;;;0.50;;
75062;SDS011;63981;51.052;13.754;2023-09-19T09:47:54;1.50;;;0.40;;
75062;SDS011;63981;51.052;13.754;2023-09-19T09:50:26;5.78;;;0.55;;
75062;SDS011;63981;51.052;13.754;2023-09-19T09:52:55;2.40;;;0.40;;
75062;SDS011;63981;51.052;13.754;2023-09-19T09:58:33;2.33;;;0.50;;
75062;SDS011;63981;51.052;13.754;2023-09-19T10:01:01;1.25;;;0.63;;
75062;SDS011;63981;51.052;13.754;2023-09-19T10:03:40;1.92;;;0.60;;
75062;SDS011;63981;51.052;13.754;2023-09-19T10:06:14;2.42;;;0.70;;
75062;SDS011;63981;51.052;13.754;2023-09-19T10:08:59;1.15;;;0.45;;
75062;SDS011;63981;51.052;13.754;2023-09-19T10:12:26;1.80;;;0.43;;
75062;SDS011;63981;51.052;13.754;2023-09-19T10:14:47;0.70;;;0.40;;
75062;SDS011;63981;51.052;13.754;2023-09-19T10:17:14;2.10;;;0.52;;
75062;SDS011;63981;51.052;13.754;2023-09-19T10:19:46;1.58;;;0.50;;
75062;SDS011;63981;51.052;13.754;2023-09-19T10:22:16;2.53;;;0.40;;
75062;SDS011;63981;51.052;13.754;2023-09-19T10:24:46;0.93;;;0.47;;
75062;SDS011;63981;51.052;13.754;2023-09-19T10:27:17;1.23;;;0.40;;
75062;SDS011;63981;51.052;13.754;2023-09-19T10:29:46;1.70;;;0.50;;
75062;SDS011;63981;51.052;13.754;2023-09-19T10:32:17;1.48;;;0.45;;
75062;SDS011;63981;51.052;13.754;2023-09-19T10:34:46;2.95;;;0.63;;
75062;SDS011;63981;51.052;13.754;2023-09-19T10:37:13;2.88;;;0.55;;
75062;SDS011;63981;51.052;13.754;2023-09-19T10:39:41;1.42;;;0.43;;
75062;SDS011;63981;51.052;13.754;2023-09-19T10:42:13;1.35;;;0.60;;
75062;SDS011;63981;51.052;13.754;2023-09-19T10:44:43;3.30;;;0.43;;
75062;SDS011;63981;51.052;13.754;2023-09-19T10:47:11;1.83;;;0.70;;
75062;SDS011;63981;51.052;13.754;2023-09-19T10:49:45;0.80;;;0.40;;
75062;SDS011;63981;51.052;13.754;2023-09-19T10:54:47;1.92;;;0.43;;
75062;SDS011;63981;51.052;13.754;2023-09-19T10:57:20;1.67;;;0.80;;
75062;SDS011;63981;51.052;13.754;2023-09-19T11:00:07;1.48;;;0.50;;
75062;SDS011;63981;51.052;13.754;2023-09-19T11:05:37;2.05;;;0.50;;
75062;SDS011;63981;51.052;13.754;2023-09-19T11:08:06;1.73;;;0.60;;
75062;SDS011;63981;51.052;13.754;2023-09-19T11:10:46;1.45;;;0.68;;
75062;SDS011;63981;51.052;13.754;2023-09-19T11:19:09;0.95;;;0.50;;
75062;SDS011;63981;51.052;13.754;2023-09-19T11:24:41;2.53;;;0.60;;
75062;SDS011;63981;51.052;13.754;2023-09-19T11:26:50;2.20;;;0.82;;
75062;SDS011;63981;51.052;13.754;2023-09-19T11:29:23;1.42;;;0.52;;
75062;SDS011;63981;51.052;13.754;2023-09-19T11:31:51;1.50;;;0.68;;
75062;SDS011;63981;51.052;13.754;2023-09-19T11:37:02;0.77;;;0.45;;
75062;SDS011;63981;51.052;13.754;2023-09-19T11:42:41;1.25;;;0.63;;
75062;SDS011;63981;51.052;13.754;2023-09-19T11:48:23;2.03;;;0.80;;
75062;SDS011;63981;51.052;13.754;2023-09-19T11:50:53;2.85;;;0.75;;
75062;SDS011;63981;51.052;13.754;2023-09-19T11:53:22;1.10;;;0.60;;
75062;SDS011;63981;51.052;13.754;2023-09-19T11:55:48;2.25;;;0.88;;
75062;SDS011;63981;51.052;13.754;2023-09-19T11:58:16;1.58;;;0.68;;
75062;SDS011;63981;51.052;13.754;2023-09-19T12:00:44;1.80;;;0.88;;
75062;SDS011;63981;51.052;13.754;2023-09-19T12:03:11;2.40;;;0.90;;
75062;SDS011;63981;51.052;13.754;2023-09-19T12:05:40;1.67;;;0.70;;
75062;SDS011;63981;51.052;13.754;2023-09-19T12:08:09;1.30;;;0.90;;
75062;SDS011;63981;51.052;13.754;2023-09-19T12:10:46;1.83;;;0.85;;
75062;SDS011;63981;51.052;13.754;2023-09-19T12:13:17;2.75;;;0.75;;
75062;SDS011;63981;51.052;13.754;2023-09-19T12:15:44;0.73;;;0.52;;
75062;SDS011;63981;51.052;13.754;2023-09-19T12:18:29;3.00;;;0.80;;
75062;SDS011;63981;51.052;13.754;2023-09-19T12:20:55;1.63;;;0.65;;
75062;SDS011;63981;51.052;13.754;2023-09-19T12:23:23;4.03;;;0.65;;
75062;SDS011;63981;51.052;13.754;2023-09-19T12:25:52;2.15;;;0.50;;
75062;SDS011;63981;51.052;13.754;2023-09-19T12:28:21;0.90;;;0.40;;
75062;SDS011;63981;51.052;13.754;2023-09-19T12:30:52;1.50;;;0.50;;
75062;SDS011;63981;51.052;13.754;2023-09-19T12:33:21;2.03;;;0.43;;
75062;SDS011;63981;51.052;13.754;2023-09-19T12:35:50;2.80;;;0.40;;
75062;SDS011;63981;51.052;13.754;2023-09-19T12:38:28;0.90;;;0.32;;
75062;SDS011;63981;51.052;13.754;2023-09-19T12:40:55;1.42;;;0.50;;
75062;SDS011;63981;51.052;13.754;2023-09-19T12:43:22;1.73;;;0.73;;
75062;SDS011;63981;51.052;13.754;2023-09-19T12:45:48;1.63;;;0.50;;
75062;SDS011;63981;51.052;13.754;2023-09-19T12:53:36;3.47;;;0.80;;
75062;SDS011;63981;51.052;13.754;2023-09-19T12:56:09;1.88;;;0.60;;
75062;SDS011;63981;51.052;13.754;2023-09-19T13:01:15;2.20;;;0.60;;
75062;SDS011;63981;51.052;13.754;2023-09-19T13:03:42;1.15;;;0.47;;
75062;SDS011;63981;51.052;13.754;2023-09-19T13:06:08;1.77;;;0.70;;
75062;SDS011;63981;51.052;13.754;2023-09-19T13:08:37;1.67;;;0.63;;
75062;SDS011;63981;51.052;13.754;2023-09-19T13:13:44;0.95;;;0.60;;
75062;SDS011;63981;51.052;13.754;2023-09-19T13:16:14;1.85;;;0.50;;
75062;SDS011;63981;51.052;13.754;2023-09-19T13:18:47;2.13;;;0.70;;
75062;SDS011;63981;51.052;13.754;2023-09-19T13:21:16;1.50;;;0.70;;
75062;SDS011;63981;51.052;13.754;2023-09-19T13:23:53;1.60;;;0.70;;
75062;SDS011;63981;51.052;13.754;2023-09-19T13:26:25;1.80;;;0.52;;
75062;SDS011;63981;51.052;13.754;2023-09-19T13:28:51;1.63;;;0.55;;
75062;SDS011;63981;51.052;13.754;2023-09-19T13:31:17;1.67;;;0.73;;
75062;SDS011;63981;51.052;13.754;2023-09-19T13:33:44;4.40;;;0.80;;
75062;SDS011;63981;51.052;13.754;2023-09-19T13:36:11;1.38;;;0.70;;
75062;SDS011;63981;51.052;13.754;2023-09-19T13:38:39;2.53;;;0.77;;
75062;SDS011;63981;51.052;13.754;2023-09-19T13:41:16;1.35;;;0.60;;
75062;SDS011;63981;51.052;13.754;2023-09-19T13:43:42;1.30;;;0.52;;
75062;SDS011;63981;51.052;13.754;2023-09-19T13:46:13;2.05;;;0.57;;
75062;SDS011;63981;51.052;13.754;2023-09-19T13:48:41;3.17;;;0.57;;
75062;SDS011;63981;51.052;13.754;2023-09-19T13:51:08;1.60;;;0.80;;
75062;SDS011;63981;51.052;13.754;2023-09-19T13:53:34;2.97;;;0.85;;
75062;SDS011;63981;51.052;13.754;2023-09-19T13:56:00;1.42;;;0.50;;
75062;SDS011;63981;51.052;13.754;2023-09-19T13:58:26;0.65;;;0.40;;
75062;SDS011;63981;51.052;13.754;2023-09-19T14:00:53;3.08;;;0.52;;
75062;SDS011;63981;51.052;13.754;2023-09-19T14:03:21;1.85;;;0.80;;
75062;SDS011;63981;51.052;13.754;2023-09-19T14:05:47;2.20;;;0.70;;
75062;SDS011;63981;51.052;13.754;2023-09-19T14:08:14;2.13;;;0.50;;
75062;SDS011;63981;51.052;13.754;2023-09-19T14:10:40;1.92;;;0.70;;
75062;SDS011;63981;51.052;13.754;2023-09-19T14:13:06;2.90;;;0.75;;
75062;SDS011;63981;51.052;13.754;2023-09-19T14:15:32;1.08;;;0.55;;
75062;SDS011;63981;51.052;13.754;2023-09-19T14:18:04;1.67;;;0.70;;
75062;SDS011;63981;51.052;13.754;2023-09-19T14:20:30;1.95;;;0.80;;
75062;SDS011;63981;51.052;13.754;2023-09-19T14:22:57;3.92;;;1.27;;
75062;SDS011;63981;51.052;13.754;2023-09-19T14:25:27;1.58;;;0.63;;
75062;SDS011;63981;51.052;13.754;2023-09-19T14:27:55;1.38;;;0.77;;
75062;SDS011;63981;51.052;13.754;2023-09-19T14:30:21;3.58;;;0.80;;
75062;SDS011;63981;51.052;13.754;2023-09-19T14:32:48;3.25;;;1.15;;
75062;SDS011;63981;51.052;13.754;2023-09-19T14:35:14;1.50;;;0.70;;
75062;SDS011;63981;51.052;13.754;2023-09-19T14:37:42;1.65;;;0.60;;
75062;SDS011;63981;51.052;13.754;2023-09-19T14:40:09;1.52;;;0.60;;
75062;SDS011;63981;51.052;13.754;2023-09-19T14:42:39;1.65;;;0.60;;
75062;SDS011;63981;51.052;13.754;2023-09-19T14:45:05;1.05;;;0.73;;
75062;SDS011;63981;51.052;13.754;2023-09-19T14:47:32;1.02;;;0.68;;
75062;SDS011;63981;51.052;13.754;2023-09-19T14:50:02;1.92;;;1.10;;
75062;SDS011;63981;51.052;13.754;2023-09-19T14:52:32;3.80;;;1.00;;
75062;SDS011;63981;51.052;13.754;2023-09-19T14:55:00;2.08;;;1.10;;
75062;SDS011;63981;51.052;13.754;2023-09-19T14:57:27;3.72;;;1.10;;
75062;SDS011;63981;51.052;13.754;2023-09-19T14:59:53;1.70;;;0.88;;
75062;SDS011;63981;51.052;13.754;2023-09-19T15:02:20;3.35;;;1.00;;
75062;SDS011;63981;51.052;13.754;2023-09-19T15:04:46;2.75;;;1.10;;
75062;SDS011;63981;51.052;13.754;2023-09-19T15:07:13;2.20;;;1.05;;
75062;SDS011;63981;51.052;13.754;2023-09-19T15:12:07;1.40;;;0.90;;
75062;SDS011;63981;51.052;13.754;2023-09-19T15:14:33;1.40;;;0.77;;
75062;SDS011;63981;51.052;13.754;2023-09-19T15:16:59;2.20;;;0.95;;
75062;SDS011;63981;51.052;13.754;2023-09-19T15:19:25;1.58;;;0.82;;
75062;SDS011;63981;51.052;13.754;2023-09-19T15:21:51;2.10;;;1.13;;
75062;SDS011;63981;51.052;13.754;2023-09-19T15:24:17;2.80;;;1.00;;
75062;SDS011;63981;51.052;13.754;2023-09-19T15:26:44;2.03;;;0.90;;
75062;SDS011;63981;51.052;13.754;2023-09-19T15:29:10;1.50;;;0.90;;
75062;SDS011;63981;51.052;13.754;2023-09-19T15:31:36;2.42;;;1.00;;
75062;SDS011;63981;51.052;13.754;2023-09-19T15:34:03;2.05;;;0.80;;
75062;SDS011;63981;51.052;13.754;2023-09-19T15:36:29;3.30;;;0.80;;
75062;SDS011;63981;51.052;13.754;2023-09-19T15:41:40;2.72;;;0.80;;
75062;SDS011;63981;51.052;13.754;2023-09-19T15:44:11;1.92;;;0.98;;